createdAt,value
2022-10-31T00:01:40.812Z,5.55
2022-10-31T00:04:08.462Z,5.95
2022-10-31T00:06:36.213Z,5.82
2022-10-31T00:09:05.648Z,6.63
2022-10-31T00:11:33.434Z,6.00
2022-10-31T00:14:01.262Z,6.70
2022-10-31T00:16:29.124Z,6.38
2022-10-31T00:18:58.980Z,7.90
2022-10-31T00:21:26.650Z,5.95
2022-10-31T00:23:54.650Z,6.53
2022-10-31T00:26:22.223Z,6.07
2022-10-31T00:28:50.138Z,5.78
2022-10-31T00:31:17.765Z,6.20
2022-10-31T00:33:45.782Z,6.97
2022-10-31T00:36:15.978Z,6.32
2022-10-31T00:38:43.910Z,6.07
2022-10-31T00:41:11.745Z,5.85
2022-10-31T00:43:39.351Z,5.63
2022-10-31T00:46:06.996Z,6.55
2022-10-31T00:48:34.588Z,6.07
2022-10-31T00:51:02.157Z,6.75
2022-10-31T00:53:31.099Z,6.68
2022-10-31T00:55:58.720Z,6.45
2022-10-31T00:58:26.348Z,6.03
2022-10-31T01:00:56.331Z,5.30
2022-10-31T01:03:24.657Z,6.65
2022-10-31T01:05:59.169Z,7.85
2022-10-31T01:08:27.389Z,8.00
2022-10-31T01:11:12.456Z,7.97
2022-10-31T01:13:40.373Z,8.25
2022-10-31T01:16:09.593Z,7.82
2022-10-31T01:18:37.206Z,7.35
2022-10-31T01:21:06.158Z,8.18
2022-10-31T01:23:34.144Z,7.78
2022-10-31T01:26:02.542Z,8.77
2022-10-31T01:28:31.486Z,8.60
2022-10-31T01:31:02.298Z,8.63
2022-10-31T01:33:29.872Z,10.05
2022-10-31T01:35:57.491Z,8.48
2022-10-31T01:38:25.114Z,9.02
2022-10-31T01:40:53.338Z,10.23
2022-10-31T01:45:56.218Z,9.27
2022-10-31T01:48:27.772Z,9.93
2022-10-31T01:50:56.352Z,8.93
2022-10-31T01:53:26.920Z,9.60
2022-10-31T01:55:55.074Z,10.93
2022-10-31T01:58:24.940Z,10.65
2022-10-31T02:00:55.982Z,9.80
2022-10-31T02:03:25.976Z,10.05
2022-10-31T02:05:55.130Z,9.73
2022-10-31T02:08:25.219Z,9.32
2022-10-31T02:10:52.952Z,9.68
2022-10-31T02:13:20.984Z,9.82
2022-10-31T02:15:51.805Z,11.32
2022-10-31T02:18:19.819Z,10.38
2022-10-31T02:20:51.983Z,9.70
2022-10-31T02:23:35.845Z,9.63
2022-10-31T02:26:13.144Z,10.85
2022-10-31T02:28:53.389Z,9.13
2022-10-31T02:31:26.061Z,10.98
2022-10-31T02:33:54.875Z,9.82
2022-10-31T02:36:26.228Z,9.88
2022-10-31T02:38:59.087Z,11.15
2022-10-31T02:41:30.933Z,11.35
2022-10-31T02:44:02.550Z,11.75
2022-10-31T02:46:34.829Z,11.38
2022-10-31T02:49:04.604Z,12.65
2022-10-31T02:51:32.413Z,9.98
2022-10-31T02:54:00.124Z,12.48
2022-10-31T02:56:27.765Z,10.02
2022-10-31T02:58:56.535Z,11.52
2022-10-31T03:01:40.668Z,10.77
2022-10-31T03:04:18.286Z,8.93
2022-10-31T03:06:48.128Z,10.05
2022-10-31T03:09:23.253Z,10.35
2022-10-31T03:11:56.257Z,10.25
2022-10-31T03:14:26.861Z,9.98
2022-10-31T03:16:58.157Z,11.15
2022-10-31T03:19:28.584Z,9.40
2022-10-31T03:21:58.129Z,9.40
2022-10-31T03:24:27.628Z,10.50
2022-10-31T03:26:56.865Z,13.75
2022-10-31T03:29:26.919Z,9.50
2022-10-31T03:31:57.895Z,8.15
2022-10-31T03:34:25.663Z,8.57
2022-10-31T03:36:54.265Z,8.95
2022-10-31T03:39:22.665Z,7.88
2022-10-31T03:41:52.063Z,8.45
2022-10-31T03:44:21.226Z,8.20
2022-10-31T03:46:48.918Z,17.60
2022-10-31T03:49:18.166Z,8.15
2022-10-31T03:51:47.655Z,9.32
2022-10-31T03:54:17.644Z,8.02
2022-10-31T03:56:47.279Z,8.68
2022-10-31T03:59:16.430Z,7.28
2022-10-31T04:01:46.969Z,8.70
2022-10-31T04:04:15.476Z,7.13
2022-10-31T04:06:45.660Z,7.85
2022-10-31T04:09:13.879Z,8.60
2022-10-31T04:11:44.570Z,16.95
2022-10-31T04:14:13.264Z,9.73
2022-10-31T04:16:41.983Z,11.05
2022-10-31T04:21:40.249Z,10.00
2022-10-31T04:24:09.440Z,10.43
2022-10-31T04:26:37.129Z,8.05
2022-10-31T04:29:04.767Z,8.00
2022-10-31T04:31:32.421Z,7.72
2022-10-31T04:34:00.114Z,9.30
2022-10-31T04:36:27.876Z,8.95
2022-10-31T04:38:55.964Z,8.77
2022-10-31T04:41:25.010Z,7.70
2022-10-31T04:43:52.690Z,17.90
2022-10-31T04:46:20.308Z,6.43
2022-10-31T04:48:48.004Z,12.93
2022-10-31T04:51:15.664Z,12.20
2022-10-31T04:53:43.254Z,8.68
2022-10-31T04:56:10.968Z,18.77
2022-10-31T04:58:39.921Z,7.25
2022-10-31T05:01:07.692Z,8.32
2022-10-31T05:03:35.463Z,15.00
2022-10-31T05:06:03.337Z,16.98
2022-10-31T05:08:30.982Z,15.10
2022-10-31T05:11:04.216Z,9.90
2022-10-31T05:13:33.698Z,7.50
2022-10-31T05:16:02.817Z,8.35
2022-10-31T05:18:30.429Z,7.05
2022-10-31T05:20:58.157Z,8.10
2022-10-31T05:23:25.810Z,6.97
2022-10-31T05:25:53.562Z,8.57
2022-10-31T05:28:21.225Z,8.00
2022-10-31T05:30:48.846Z,6.13
2022-10-31T05:33:17.856Z,7.25
2022-10-31T05:35:45.516Z,6.30
2022-10-31T05:38:13.117Z,7.25
2022-10-31T05:40:40.810Z,5.50
2022-10-31T05:43:08.482Z,5.40
2022-10-31T05:45:36.112Z,7.97
2022-10-31T05:48:04.270Z,6.68
2022-10-31T05:50:33.922Z,5.68
2022-10-31T05:53:02.386Z,5.72
2022-10-31T05:55:30.268Z,5.97
2022-10-31T05:57:58.700Z,5.82
2022-10-31T06:00:27.029Z,6.63
2022-10-31T06:03:00.101Z,6.63
2022-10-31T06:05:27.927Z,5.88
2022-10-31T06:07:57.188Z,7.18
2022-10-31T06:10:25.451Z,6.05
2022-10-31T06:12:53.120Z,6.80
2022-10-31T06:15:24.110Z,5.93
2022-10-31T06:18:00.098Z,7.20
2022-10-31T06:20:27.958Z,8.23
2022-10-31T06:22:57.211Z,10.18
2022-10-31T06:25:25.069Z,9.95
2022-10-31T06:27:52.682Z,8.27
2022-10-31T06:30:20.532Z,7.07
2022-10-31T06:32:48.308Z,7.20
2022-10-31T06:35:16.059Z,8.52
2022-10-31T06:37:46.753Z,8.57
2022-10-31T06:40:18.619Z,8.55
2022-10-31T06:42:46.246Z,8.15
2022-10-31T06:45:13.928Z,8.82
2022-10-31T06:48:11.016Z,9.65
2022-10-31T06:50:29.433Z,8.75
2022-10-31T06:52:57.707Z,10.27
2022-10-31T06:55:27.345Z,9.02
2022-10-31T06:57:57.674Z,9.82
2022-10-31T07:00:30.637Z,11.43
2022-10-31T07:02:58.676Z,10.23
2022-10-31T07:05:26.594Z,10.90
2022-10-31T07:07:54.863Z,9.30
2022-10-31T07:10:22.727Z,9.30
2022-10-31T07:12:55.693Z,9.90
2022-10-31T07:15:23.399Z,9.40
2022-10-31T07:17:51.138Z,9.27
2022-10-31T07:20:18.825Z,10.77
2022-10-31T07:22:49.712Z,9.60
2022-10-31T07:25:18.403Z,9.73
2022-10-31T07:27:46.026Z,9.88
2022-10-31T07:30:15.428Z,10.32
2022-10-31T07:32:43.639Z,9.75
2022-10-31T07:35:12.140Z,9.23
2022-10-31T07:37:39.913Z,8.30
2022-10-31T07:40:08.249Z,9.25
2022-10-31T07:42:37.040Z,9.60
2022-10-31T07:45:04.885Z,12.10
2022-10-31T07:47:39.699Z,9.02
2022-10-31T07:50:08.047Z,9.73
2022-10-31T07:52:35.646Z,9.95
2022-10-31T07:55:03.300Z,12.27
2022-10-31T07:57:34.463Z,12.68
2022-10-31T08:00:02.594Z,12.43
2022-10-31T08:02:30.245Z,9.40
2022-10-31T08:05:01.446Z,8.85
2022-10-31T08:07:29.733Z,9.32
2022-10-31T08:09:57.649Z,11.63
2022-10-31T08:12:25.488Z,10.07
2022-10-31T08:14:53.102Z,9.45
2022-10-31T08:17:20.712Z,10.45
2022-10-31T08:19:48.334Z,10.43
2022-10-31T08:22:17.321Z,10.40
2022-10-31T08:24:44.915Z,10.05
2022-10-31T08:27:12.550Z,9.07
2022-10-31T08:29:40.230Z,9.18
2022-10-31T08:32:07.872Z,11.07
2022-10-31T08:34:35.464Z,9.63
2022-10-31T08:37:03.342Z,8.63
2022-10-31T08:39:32.287Z,9.65
2022-10-31T08:41:59.889Z,9.35
2022-10-31T08:44:27.644Z,8.95
2022-10-31T08:46:55.412Z,9.10
2022-10-31T08:49:23.074Z,9.30
2022-10-31T08:51:52.126Z,10.60
2022-10-31T08:54:19.943Z,8.65
2022-10-31T08:56:48.908Z,8.18
2022-10-31T08:59:16.516Z,10.32
2022-10-31T09:01:44.228Z,10.10
2022-10-31T09:04:12.060Z,10.23
2022-10-31T09:06:46.435Z,10.43
2022-10-31T09:09:23.248Z,9.57
2022-10-31T09:11:52.303Z,10.85
2022-10-31T09:14:19.969Z,9.38
2022-10-31T09:16:47.760Z,9.73
2022-10-31T09:19:15.712Z,10.05
2022-10-31T09:21:43.349Z,8.50
2022-10-31T09:24:11.210Z,9.05
2022-10-31T09:26:38.819Z,8.25
2022-10-31T09:29:10.426Z,10.13
2022-10-31T09:31:43.732Z,8.40
2022-10-31T09:34:12.467Z,10.00
2022-10-31T09:36:40.553Z,9.85
2022-10-31T09:39:08.420Z,9.75
2022-10-31T09:41:54.524Z,11.27
2022-10-31T09:44:31.751Z,11.65
2022-10-31T09:47:02.961Z,10.20
2022-10-31T09:49:36.769Z,10.95
2022-10-31T09:52:07.309Z,10.68
2022-10-31T09:54:38.927Z,11.13
2022-10-31T09:57:07.886Z,10.38
2022-10-31T09:59:38.096Z,9.15
2022-10-31T10:02:08.047Z,10.73
2022-10-31T10:04:38.478Z,10.05
2022-10-31T10:07:10.034Z,10.65
2022-10-31T10:09:38.171Z,10.30
2022-10-31T10:12:11.449Z,9.48
2022-10-31T10:14:51.872Z,9.68
2022-10-31T10:17:22.879Z,11.27
2022-10-31T10:19:56.570Z,9.15
2022-10-31T10:22:28.107Z,10.45
2022-10-31T10:25:00.837Z,8.65
2022-10-31T10:27:33.210Z,8.57
2022-10-31T10:30:04.214Z,9.07
2022-10-31T10:32:33.782Z,9.20
2022-10-31T10:35:04.221Z,9.00
2022-10-31T10:37:33.884Z,9.00
2022-10-31T10:40:07.926Z,8.88
2022-10-31T10:42:53.824Z,7.70
2022-10-31T10:45:40.446Z,8.23
2022-10-31T10:48:11.122Z,9.27
2022-10-31T10:50:41.598Z,9.88
2022-10-31T10:53:22.151Z,9.20
2022-10-31T10:55:53.287Z,9.15
2022-10-31T10:58:20.907Z,9.65
2022-10-31T11:00:51.160Z,9.50
2022-10-31T11:03:19.820Z,10.05
2022-10-31T11:05:50.158Z,9.50
2022-10-31T11:08:27.714Z,9.75
2022-10-31T11:11:00.706Z,9.02
2022-10-31T11:13:28.674Z,9.60
2022-10-31T11:16:00.590Z,8.75
2022-10-31T11:18:29.211Z,9.30
2022-10-31T11:20:58.271Z,10.13
2022-10-31T11:23:26.730Z,10.48
2022-10-31T11:25:56.899Z,8.85
2022-10-31T11:28:24.576Z,9.27
2022-10-31T11:30:54.145Z,8.13
2022-10-31T11:33:24.580Z,8.82
2022-10-31T11:35:55.210Z,8.70
2022-10-31T11:38:28.156Z,8.57
2022-10-31T11:40:57.145Z,9.50
2022-10-31T11:43:25.023Z,8.13
2022-10-31T11:45:52.886Z,8.73
2022-10-31T11:48:22.545Z,9.95
2022-10-31T11:50:52.539Z,8.43
2022-10-31T11:53:21.439Z,9.07
2022-10-31T11:55:49.790Z,10.15
2022-10-31T11:58:24.401Z,11.93
2022-10-31T12:00:52.843Z,12.68
2022-10-31T12:03:29.250Z,13.32
2022-10-31T12:06:00.930Z,13.68
2022-10-31T12:08:31.674Z,14.60
2022-10-31T12:11:04.823Z,13.13
2022-10-31T12:13:35.335Z,12.43
2022-10-31T12:16:06.358Z,11.98
2022-10-31T12:18:40.611Z,12.77
2022-10-31T12:21:18.212Z,10.73
2022-10-31T12:23:50.841Z,10.00
2022-10-31T12:26:19.748Z,10.77
2022-10-31T12:28:56.200Z,9.02
2022-10-31T12:31:35.674Z,10.63
2022-10-31T12:34:11.917Z,9.07
2022-10-31T12:36:46.299Z,10.18
2022-10-31T12:39:20.633Z,10.03
2022-10-31T12:41:49.113Z,9.03
2022-10-31T12:44:26.143Z,8.27
2022-10-31T12:47:02.578Z,9.82
2022-10-31T12:49:39.689Z,9.23
2022-10-31T12:52:14.885Z,8.30
2022-10-31T12:57:15.499Z,8.00
2022-10-31T12:59:45.694Z,8.02
2022-10-31T13:02:18.296Z,9.63
2022-10-31T13:04:48.958Z,8.40
2022-10-31T13:07:19.540Z,8.85
2022-10-31T13:09:52.084Z,8.38
2022-10-31T13:12:21.578Z,8.77
2022-10-31T13:14:50.752Z,8.98
2022-10-31T13:17:22.926Z,7.30
2022-10-31T13:19:51.391Z,8.05
2022-10-31T13:22:22.742Z,7.53
2022-10-31T13:24:55.349Z,6.63
2022-10-31T13:27:24.592Z,8.68
2022-10-31T13:29:58.916Z,7.63
2022-10-31T13:32:28.937Z,7.90
2022-10-31T13:35:00.059Z,7.25
2022-10-31T13:37:32.808Z,8.45
2022-10-31T13:40:08.186Z,7.75
2022-10-31T13:42:42.715Z,6.88
2022-10-31T13:45:17.251Z,7.30
2022-10-31T13:47:44.939Z,7.68
2022-10-31T13:50:22.777Z,7.88
2022-10-31T13:52:51.902Z,8.13
2022-10-31T13:55:38.261Z,6.82
2022-10-31T13:58:06.753Z,7.18
2022-10-31T14:00:36.148Z,7.63
2022-10-31T14:03:04.021Z,6.63
2022-10-31T14:05:33.129Z,7.57
2022-10-31T14:08:03.783Z,7.60
2022-10-31T14:10:33.355Z,7.47
2022-10-31T14:13:06.493Z,6.95
2022-10-31T14:15:34.317Z,7.10
2022-10-31T14:18:03.579Z,7.40
2022-10-31T14:20:41.032Z,6.22
2022-10-31T14:23:33.768Z,6.18
2022-10-31T14:26:21.754Z,6.82
2022-10-31T14:28:50.308Z,7.78
2022-10-31T14:31:33.613Z,7.88
2022-10-31T14:34:01.460Z,8.80
2022-10-31T14:36:32.762Z,9.05
2022-10-31T14:39:04.072Z,7.05
2022-10-31T14:41:43.975Z,6.18
2022-10-31T14:44:37.323Z,5.80
2022-10-31T14:47:12.340Z,5.90
2022-10-31T14:49:48.593Z,5.93
2022-10-31T14:52:18.227Z,5.63
2022-10-31T14:54:49.542Z,4.68
2022-10-31T14:57:18.689Z,5.07
2022-10-31T14:59:49.889Z,4.85
2022-10-31T15:02:19.502Z,4.78
2022-10-31T15:04:48.527Z,7.65
2022-10-31T15:07:23.454Z,7.70
2022-10-31T15:10:00.604Z,4.90
2022-10-31T15:12:29.546Z,4.28
2022-10-31T15:14:57.514Z,4.03
2022-10-31T15:17:25.940Z,4.38
2022-10-31T15:19:54.302Z,3.72
2022-10-31T15:22:24.616Z,4.25
2022-10-31T15:24:57.034Z,5.00
2022-10-31T15:27:26.190Z,3.97
2022-10-31T15:29:54.847Z,4.78
2022-10-31T15:32:23.813Z,4.68
2022-10-31T15:34:52.595Z,5.03
2022-10-31T15:37:21.372Z,4.68
2022-10-31T15:39:49.653Z,4.93
2022-10-31T15:42:20.521Z,5.43
2022-10-31T15:44:51.517Z,4.18
2022-10-31T15:47:20.317Z,4.07
2022-10-31T15:49:50.317Z,4.20
2022-10-31T15:52:19.747Z,4.22
2022-10-31T15:54:50.072Z,4.43
2022-10-31T15:57:18.101Z,4.18
2022-10-31T15:59:48.287Z,3.42
2022-10-31T16:02:20.299Z,3.72
2022-10-31T16:04:52.811Z,4.00
2022-10-31T16:07:23.521Z,5.50
2022-10-31T16:09:52.344Z,4.38
2022-10-31T16:12:22.598Z,4.57
2022-10-31T16:14:51.098Z,4.28
2022-10-31T16:17:22.011Z,3.28
2022-10-31T16:19:52.989Z,3.78
2022-10-31T16:22:22.824Z,3.92
2022-10-31T16:24:51.903Z,4.38
2022-10-31T16:27:21.116Z,4.22
2022-10-31T16:29:49.590Z,4.28
2022-10-31T16:32:29.087Z,4.30
2022-10-31T16:35:15.189Z,4.20
2022-10-31T16:37:43.389Z,4.60
2022-10-31T16:40:12.267Z,4.85
2022-10-31T16:42:39.970Z,5.32
2022-10-31T16:45:07.961Z,5.22
2022-10-31T16:47:36.965Z,4.38
2022-10-31T16:50:07.705Z,4.72
2022-10-31T16:52:38.537Z,5.07
2022-10-31T16:55:21.859Z,5.53
2022-10-31T16:57:50.826Z,5.18
2022-10-31T17:00:20.083Z,4.00
2022-10-31T17:02:50.058Z,5.68
2022-10-31T17:05:18.619Z,3.80
2022-10-31T17:07:46.244Z,4.57
2022-10-31T17:10:15.373Z,4.68
2022-10-31T17:12:44.553Z,5.03
2022-10-31T17:15:16.988Z,4.63
2022-10-31T17:17:44.757Z,4.80
2022-10-31T17:20:23.618Z,5.28
2022-10-31T17:22:51.245Z,6.30
2022-10-31T17:25:20.164Z,4.68
2022-10-31T17:27:47.795Z,6.18
2022-10-31T17:30:15.660Z,5.03
2022-10-31T17:32:43.561Z,4.68
2022-10-31T17:35:11.395Z,5.22
2022-10-31T17:37:42.441Z,5.25
2022-10-31T17:40:10.831Z,5.13
2022-10-31T17:42:38.460Z,4.68
2022-10-31T17:45:06.867Z,4.88
2022-10-31T17:47:34.528Z,5.22
2022-10-31T17:50:02.240Z,4.97
2022-10-31T17:52:29.921Z,5.68
2022-10-31T17:54:58.886Z,4.60
2022-10-31T17:57:26.645Z,4.75
2022-10-31T17:59:54.348Z,4.90
2022-10-31T18:02:22.128Z,4.72
2022-10-31T18:04:49.908Z,4.90
2022-10-31T18:07:19.317Z,4.78
2022-10-31T18:09:47.583Z,5.63
2022-10-31T18:12:16.928Z,6.10
2022-10-31T18:14:48.304Z,5.72
2022-10-31T18:17:16.332Z,5.28
2022-10-31T18:19:43.994Z,4.95
2022-10-31T18:22:11.700Z,5.68
2022-10-31T18:24:39.561Z,7.15
2022-10-31T18:27:07.449Z,5.53
2022-10-31T18:29:36.618Z,6.18
2022-10-31T18:32:09.073Z,5.53
2022-10-31T18:34:37.512Z,5.35
2022-10-31T18:37:05.346Z,5.88
2022-10-31T18:39:32.994Z,5.22
2022-10-31T18:42:00.671Z,5.72
2022-10-31T18:44:28.426Z,5.28
2022-10-31T18:46:57.379Z,5.22
2022-10-31T18:49:26.049Z,5.07
2022-10-31T18:51:56.738Z,6.00
2022-10-31T18:54:24.345Z,5.40
2022-10-31T18:56:51.978Z,4.95
2022-10-31T18:59:19.583Z,5.32
2022-10-31T19:01:47.761Z,5.50
2022-10-31T19:04:16.844Z,5.50
2022-10-31T19:06:44.527Z,5.68
2022-10-31T19:09:12.191Z,4.95
2022-10-31T19:11:39.970Z,5.35
2022-10-31T19:14:08.581Z,6.15
2022-10-31T19:16:36.480Z,4.82
2022-10-31T19:19:04.371Z,5.35
2022-10-31T19:21:33.509Z,5.43
2022-10-31T19:24:01.699Z,5.20
2022-10-31T19:26:29.917Z,5.32
2022-10-31T19:28:57.879Z,6.85
2022-10-31T19:31:25.545Z,5.10
2022-10-31T19:33:53.183Z,5.63
2022-10-31T19:36:21.573Z,5.97
2022-10-31T19:38:51.868Z,5.43
2022-10-31T19:41:20.347Z,4.93
2022-10-31T19:43:48.051Z,5.55
2022-10-31T19:46:22.886Z,4.88
2022-10-31T19:48:56.005Z,5.07
2022-10-31T19:51:23.624Z,5.35
2022-10-31T19:53:52.628Z,4.95
2022-10-31T19:56:22.391Z,4.80
2022-10-31T19:58:50.234Z,5.50
2022-10-31T20:01:18.748Z,4.28
2022-10-31T20:03:46.936Z,5.15
2022-10-31T20:06:16.470Z,4.50
2022-10-31T20:08:44.085Z,4.75
2022-10-31T20:11:13.099Z,5.18
2022-10-31T20:13:40.766Z,4.82
2022-10-31T20:16:09.718Z,4.60
2022-10-31T20:18:38.044Z,4.20
2022-10-31T20:21:11.037Z,5.65
2022-10-31T20:23:39.266Z,5.30
2022-10-31T20:26:07.648Z,4.78
2022-10-31T20:28:41.486Z,4.43
2022-10-31T20:31:11.668Z,5.38
2022-10-31T20:33:39.738Z,5.50
2022-10-31T20:36:08.261Z,5.95
2022-10-31T20:38:38.441Z,4.90
2022-10-31T20:41:06.944Z,5.15
2022-10-31T20:43:36.131Z,5.18
2022-10-31T20:46:05.010Z,5.30
2022-10-31T20:48:32.859Z,4.78
2022-10-31T20:51:01.342Z,4.72
2022-10-31T20:53:29.438Z,5.15
2022-10-31T20:56:06.997Z,4.63
2022-10-31T20:58:36.923Z,5.05
2022-10-31T21:01:04.811Z,5.30
2022-10-31T21:03:36.668Z,5.43
2022-10-31T21:06:05.170Z,5.05
2022-10-31T21:08:33.585Z,5.18
2022-10-31T21:11:01.653Z,4.78
2022-10-31T21:13:29.455Z,4.28
2022-10-31T21:16:01.636Z,4.18
2022-10-31T21:18:29.381Z,5.28
2022-10-31T21:20:57.125Z,4.78
2022-10-31T21:23:24.845Z,4.20
2022-10-31T21:25:52.763Z,4.97
2022-10-31T21:28:20.399Z,4.70
2022-10-31T21:30:49.354Z,4.43
2022-10-31T21:33:20.905Z,4.22
2022-10-31T21:35:52.254Z,5.18
2022-10-31T21:38:19.890Z,5.53
2022-10-31T21:40:47.510Z,4.60
2022-10-31T21:43:15.473Z,4.80
2022-10-31T21:45:43.290Z,4.28
2022-10-31T21:48:11.060Z,4.75
2022-10-31T21:50:41.389Z,5.22
2022-10-31T21:53:22.886Z,5.20
2022-10-31T21:55:50.502Z,4.65
2022-10-31T21:58:18.257Z,5.22
2022-10-31T22:00:45.953Z,4.85
2022-10-31T22:03:13.659Z,6.22
2022-10-31T22:05:42.721Z,4.88
2022-10-31T22:08:10.369Z,4.75
2022-10-31T22:10:38.109Z,6.43
2022-10-31T22:13:05.700Z,6.13
2022-10-31T22:15:33.321Z,6.18
2022-10-31T22:18:01.385Z,4.63
2022-10-31T22:20:29.273Z,5.90
2022-10-31T22:23:01.566Z,6.28
2022-10-31T22:25:29.314Z,4.90
2022-10-31T22:27:57.188Z,7.13
2022-10-31T22:30:24.831Z,5.35
2022-10-31T22:32:52.896Z,5.60
2022-10-31T22:35:20.903Z,5.13
2022-10-31T22:37:48.703Z,5.55
2022-10-31T22:40:18.033Z,5.53
2022-10-31T22:42:45.708Z,5.20
2022-10-31T22:45:13.420Z,5.75
2022-10-31T22:50:14.157Z,5.25
2022-10-31T22:52:41.867Z,5.85
2022-10-31T22:55:10.245Z,5.25
2022-10-31T22:57:39.276Z,6.15
2022-10-31T23:00:08.604Z,6.05
2022-10-31T23:02:36.541Z,6.13
2022-10-31T23:05:04.765Z,5.53
2022-10-31T23:07:33.209Z,7.78
2022-10-31T23:10:00.974Z,5.15
2022-10-31T23:12:48.517Z,5.55
2022-10-31T23:15:17.991Z,5.57
2022-10-31T23:17:45.832Z,5.03
2022-10-31T23:20:13.514Z,5.75
2022-10-31T23:22:41.629Z,5.63
2022-10-31T23:25:10.129Z,5.60
2022-10-31T23:27:36.816Z,5.07
2022-10-31T23:30:05.776Z,5.40
2022-10-31T23:32:36.306Z,6.07
2022-10-31T23:35:05.434Z,5.38
2022-10-31T23:37:34.880Z,5.13
2022-10-31T23:40:02.984Z,4.07
2022-10-31T23:42:30.794Z,4.57
2022-10-31T23:44:58.937Z,4.70
2022-10-31T23:47:26.708Z,5.10
2022-10-31T23:49:55.770Z,5.18
2022-10-31T23:52:23.456Z,5.32
2022-10-31T23:54:51.137Z,4.50
2022-10-31T23:57:18.885Z,4.85
2022-10-31T23:59:47.932Z,3.53
